Time;durP1;ratioP1;P1;durP2;ratioP2;P2;SDS_P1;SDS_P2;PMS_P1;PMS_P2;Temp;Humidity;BMP_temperature;BMP_pressure;BME280_temperature;BME280_humidity;BME280_pressure;Samples;Min_cycle;Max_cycle;Signal;HPM_P1;HPM_P2
2023/10/30 00:00:13;;;;;;;0.70;0.70;;;;;;;9.80;92.00;95031.66;5045505;28;20568;-75
2023/10/30 00:02:40;;;;;;;0.28;0.28;;;;;;;9.73;92.34;95031.28;5051567;28;20223;-76
2023/10/30 00:05:08;;;;;;;0.20;0.20;;;;;;;9.73;92.75;95023.16;5044665;28;20212;-74
2023/10/30 00:07:35;;;;;;;2.85;1.17;;;;;;;9.69;92.91;95019.50;5048790;28;20622;-74
2023/10/30 00:10:02;;;;;;;0.40;0.40;;;;;;;9.68;93.53;95028.72;5051425;28;20625;-74
2023/10/30 00:12:29;;;;;;;2.72;1.05;;;;;;;9.73;92.73;95025.88;5051016;28;20204;-74
2023/10/30 00:15:02;;;;;;;1.38;1.08;;;;;;;9.83;92.03;95019.41;5051316;28;20346;-74
2023/10/30 00:17:30;;;;;;;1.75;0.88;;;;;;;9.75;92.80;95015.53;5036938;28;20212;-75
2023/10/30 00:19:58;;;;;;;1.30;0.88;;;;;;;9.83;92.56;95014.78;5051168;28;20215;-74
2023/10/30 00:22:26;;;;;;;3.17;1.10;;;;;;;9.84;92.13;95021.78;5034235;28;20715;-74
2023/10/30 00:24:52;;;;;;;0.88;0.88;;;;;;;9.70;92.32;95013.00;5051038;28;20207;-75
2023/10/30 00:27:19;;;;;;;1.42;1.20;;;;;;;9.71;92.39;95014.56;5047941;28;20250;-75
2023/10/30 00:29:46;;;;;;;0.20;0.20;;;;;;;9.60;92.61;95015.94;5040618;28;20227;-74
2023/10/30 00:32:13;;;;;;;0.38;0.38;;;;;;;9.50;92.15;95016.22;5044669;28;20208;-74
2023/10/30 00:34:41;;;;;;;0.40;0.40;;;;;;;9.45;92.62;95013.66;5040509;28;20261;-74
2023/10/30 00:37:09;;;;;;;0.20;0.20;;;;;;;9.48;92.72;95029.25;5050190;28;20203;-75
2023/10/30 00:39:37;;;;;;;0.85;0.65;;;;;;;9.59;92.68;95025.16;5051184;28;20211;-75
2023/10/30 00:42:04;;;;;;;0.30;0.30;;;;;;;9.41;91.87;95026.22;5046228;28;20266;-74
2023/10/30 00:44:31;;;;;;;0.20;0.20;;;;;;;9.34;92.63;95015.03;5041476;28;20199;-74
2023/10/30 00:46:57;;;;;;;0.30;0.30;;;;;;;9.36;93.01;95018.22;5044707;28;20227;-74
2023/10/30 00:49:24;;;;;;;0.20;0.20;;;;;;;9.30;92.80;95022.16;5040553;28;20281;-74
2023/10/30 00:51:53;;;;;;;0.43;0.43;;;;;;;9.23;93.21;95023.41;5050729;28;20574;-75
2023/10/30 00:54:20;;;;;;;0.40;0.40;;;;;;;9.20;93.65;95018.59;5039158;28;20216;-75
2023/10/30 00:56:46;;;;;;;0.30;0.30;;;;;;;9.21;94.31;95020.22;5048822;28;20571;-75
2023/10/30 00:59:14;;;;;;;0.20;0.20;;;;;;;9.21;93.59;95019.41;5050419;28;20215;-74
2023/10/30 01:01:40;;;;;;;1.52;0.88;;;;;;;9.35;93.52;95019.34;5036962;28;20219;-74
2023/10/30 01:04:08;;;;;;;1.10;1.00;;;;;;;9.40;93.59;95021.91;5049955;28;20199;-75
2023/10/30 01:06:35;;;;;;;2.15;0.90;;;;;;;9.33;93.49;95021.53;5031424;28;20292;-74
2023/10/30 01:09:03;;;;;;;0.20;0.20;;;;;;;9.32;93.52;95025.34;5042563;28;20227;-76
2023/10/30 01:11:30;;;;;;;0.65;0.55;;;;;;;9.17;93.89;95029.22;5050542;28;20541;-75
2023/10/30 01:13:57;;;;;;;0.35;0.35;;;;;;;8.95;95.34;95027.34;5037261;28;20204;-74
2023/10/30 01:16:24;;;;;;;0.40;0.40;;;;;;;9.01;96.46;95020.72;5036286;28;20603;-75
2023/10/30 01:18:50;;;;;;;0.20;0.20;;;;;;;9.04;96.71;95030.91;5049930;28;20203;-75
2023/10/30 01:21:20;;;;;;;5.72;1.58;;;;;;;9.06;96.62;95023.28;5039941;28;20204;-76
2023/10/30 01:23:46;;;;;;;1.42;1.23;;;;;;;9.01;96.93;95020.72;5049941;28;20200;-76
2023/10/30 01:26:15;;;;;;;2.60;1.35;;;;;;;9.10;97.39;95012.66;5042426;28;20255;-76
2023/10/30 01:28:42;;;;;;;1.00;0.90;;;;;;;9.04;96.96;95020.09;5046709;28;20234;-76
2023/10/30 01:31:09;;;;;;;2.47;1.20;;;;;;;9.11;96.07;95015.06;5046800;28;20211;-77
2023/10/30 01:33:36;;;;;;;1.30;1.00;;;;;;;9.08;95.98;95012.19;5050949;28;20203;-77
2023/10/30 01:36:03;;;;;;;3.35;1.33;;;;;;;9.05;97.07;95010.09;5038739;28;20208;-77
2023/10/30 01:38:29;;;;;;;3.50;1.83;;;;;;;9.02;97.34;95022.28;5050539;28;20215;-76
2023/10/30 01:40:56;;;;;;;0.30;0.30;;;;;;;9.02;97.38;95016.91;5054149;28;20195;-76
2023/10/30 01:43:31;;;;;;;0.40;0.40;;;;;;;8.94;97.39;95014.94;5053644;28;20225;-77
2023/10/30 01:45:58;;;;;;;0.20;0.20;;;;;;;8.94;98.08;95017.66;5038495;28;20218;-76
2023/10/30 01:48:26;;;;;;;0.30;0.30;;;;;;;8.98;97.89;95017.84;5049291;28;20207;-76
2023/10/30 01:50:53;;;;;;;0.20;0.20;;;;;;;8.90;97.79;95008.56;5047078;28;20228;-76
2023/10/30 01:53:21;;;;;;;0.20;0.20;;;;;;;8.89;98.16;95012.34;5050284;28;20277;-79
2023/10/30 01:55:49;;;;;;;1.10;1.05;;;;;;;8.95;98.73;95016.53;5043763;28;20591;-77
2023/10/30 01:58:16;;;;;;;0.40;0.40;;;;;;;8.94;98.45;95019.53;5035102;28;20519;-77
2023/10/30 02:00:46;;;;;;;0.60;0.60;;;;;;;8.79;100.00;95009.91;5043212;28;20266;-77
2023/10/30 02:03:13;;;;;;;0.25;0.25;;;;;;;8.87;100.00;95025.41;5037373;28;20238;-76
2023/10/30 02:05:40;;;;;;;0.30;0.30;;;;;;;8.87;100.00;95026.19;5053865;28;20208;-76
2023/10/30 02:08:07;;;;;;;2.40;1.13;;;;;;;8.98;100.00;95026.75;5053506;28;20575;-76
2023/10/30 02:10:35;;;;;;;1.15;0.90;;;;;;;8.96;98.74;95026.25;5053274;28;20224;-76
2023/10/30 02:13:04;;;;;;;1.77;1.20;;;;;;;8.98;97.93;95026.75;5048717;28;20211;-77
2023/10/30 02:15:31;;;;;;;1.80;1.17;;;;;;;8.95;98.38;95030.06;5033452;28;20208;-75
2023/10/30 02:18:00;;;;;;;1.90;1.20;;;;;;;8.87;97.90;95020.78;5051736;28;20218;-75
2023/10/30 02:20:27;;;;;;;0.88;0.80;;;;;;;8.86;98.12;95023.78;5040574;28;20219;-75
2023/10/30 02:22:54;;;;;;;1.58;1.10;;;;;;;8.82;98.03;95014.69;5052028;28;20453;-76
2023/10/30 02:30:29;;;;;;;0.22;0.22;;;;;;;8.25;100.00;95027.84;5086110;27;1391512;-75
2023/10/30 02:32:56;;;;;;;1.05;0.75;;;;;;;8.28;100.00;95046.13;5112738;28;20200;-75
2023/10/30 02:35:23;;;;;;;1.02;0.88;;;;;;;8.33;100.00;95035.25;5107809;28;20217;-75
2023/10/30 02:37:50;;;;;;;1.92;1.20;;;;;;;8.39;99.98;95035.94;5108563;28;20213;-74
2023/10/30 02:40:17;;;;;;;0.95;0.70;;;;;;;8.37;100.00;95044.34;5114266;28;20194;-75
2023/10/30 02:42:44;;;;;;;1.40;1.13;;;;;;;8.38;100.00;95027.03;5108170;28;20528;-74
2023/10/30 02:45:11;;;;;;;0.20;0.20;;;;;;;8.61;100.00;95027.09;5108496;28;20691;-74
2023/10/30 02:47:39;;;;;;;0.20;0.20;;;;;;;8.59;100.00;95030.09;5119611;28;20202;-74
2023/10/30 02:50:07;;;;;;;1.58;1.48;;;;;;;8.59;100.00;95023.91;5115959;28;20230;-74
2023/10/30 02:52:35;;;;;;;0.40;0.40;;;;;;;8.57;100.00;95031.50;5119298;28;20201;-74
2023/10/30 02:55:02;;;;;;;1.15;1.05;;;;;;;8.53;100.00;95028.59;5119342;28;20230;-74
2023/10/30 02:57:29;;;;;;;0.20;0.20;;;;;;;8.53;100.00;95032.09;5116793;28;20712;-74
2023/10/30 02:59:56;;;;;;;0.20;0.20;;;;;;;8.46;100.00;95026.34;5109351;28;20209;-74
2023/10/30 03:02:23;;;;;;;0.30;0.30;;;;;;;8.47;100.00;95044.09;5114451;28;20289;-76
2023/10/30 03:04:51;;;;;;;0.75;0.75;;;;;;;8.40;100.00;95024.03;5121534;28;20201;-75
2023/10/30 03:07:18;;;;;;;0.68;0.60;;;;;;;8.33;100.00;95032.56;5113541;28;20205;-77
2023/10/30 03:09:45;;;;;;;0.98;0.98;;;;;;;8.31;100.00;95026.63;5113187;28;20226;-78
2023/10/30 03:12:12;;;;;;;0.22;0.22;;;;;;;8.11;100.00;95035.16;5113373;28;20259;-79
2023/10/30 03:14:39;;;;;;;0.20;0.20;;;;;;;8.16;100.00;95032.34;5112117;28;20296;-79
2023/10/30 03:17:06;;;;;;;1.70;1.20;;;;;;;8.23;100.00;95032.72;5107316;28;20210;-80
2023/10/30 03:19:33;;;;;;;2.08;1.25;;;;;;;8.30;100.00;95038.53;5118812;28;20205;-79
2023/10/30 03:22:01;;;;;;;4.10;1.42;;;;;;;8.30;100.00;95035.84;5119896;28;20564;-80
2023/10/30 03:24:29;;;;;;;1.48;0.93;;;;;;;8.35;100.00;95038.44;5110462;28;20210;-80
2023/10/30 03:26:56;;;;;;;1.70;1.10;;;;;;;8.36;100.00;95042.72;5113698;28;20312;-79
2023/10/30 03:29:23;;;;;;;0.95;0.90;;;;;;;8.30;100.00;95043.94;5116520;28;20307;-79
2023/10/30 03:31:52;;;;;;;3.40;1.55;;;;;;;8.10;100.00;95041.63;5113967;28;20249;-79
2023/10/30 03:34:21;;;;;;;1.92;1.50;;;;;;;8.17;100.00;95050.16;5119864;28;20300;-79
2023/10/30 03:36:47;;;;;;;1.98;1.10;;;;;;;8.17;100.00;95050.16;5117712;28;20213;-80
2023/10/30 03:39:16;;;;;;;0.98;0.68;;;;;;;8.15;100.00;95063.13;5106530;28;20204;-80
2023/10/30 03:41:44;;;;;;;1.85;1.27;;;;;;;8.11;100.00;95057.53;5093928;28;20226;-79
2023/10/30 03:44:11;;;;;;;1.35;1.08;;;;;;;8.16;100.00;95053.94;5093096;28;20214;-79
2023/10/30 03:46:38;;;;;;;3.28;1.15;;;;;;;8.22;100.00;95047.31;5092992;28;20206;-78
2023/10/30 03:49:05;;;;;;;1.20;1.10;;;;;;;8.16;100.00;95045.84;5093134;28;20230;-78
2023/10/30 03:51:32;;;;;;;0.25;0.25;;;;;;;8.15;100.00;95055.03;5092741;28;20214;-79
2023/10/30 03:53:59;;;;;;;0.28;0.28;;;;;;;8.15;100.00;95058.53;5092956;28;20206;-79
2023/10/30 03:56:27;;;;;;;0.63;0.63;;;;;;;8.17;100.00;95055.53;5093003;28;20198;-75
2023/10/30 03:58:53;;;;;;;0.80;0.80;;;;;;;8.01;100.00;95052.34;5092994;28;20658;-75
2023/10/30 04:01:20;;;;;;;0.20;0.20;;;;;;;8.03;100.00;95049.34;5092485;28;20213;-75
2023/10/30 04:03:47;;;;;;;0.30;0.30;;;;;;;8.01;100.00;95048.84;5092754;28;20213;-75
2023/10/30 04:06:14;;;;;;;2.63;0.77;;;;;;;8.03;100.00;95043.97;5092468;28;20203;-75
2023/10/30 04:08:41;;;;;;;0.40;0.40;;;;;;;7.94;100.00;95048.44;5092170;28;20214;-75
2023/10/30 04:11:12;;;;;;;0.70;0.45;;;;;;;7.91;100.00;95047.16;5092529;28;20205;-76
2023/10/30 04:13:40;;;;;;;0.30;0.30;;;;;;;8.05;100.00;95047.16;5092779;28;20202;-76
2023/10/30 04:16:10;;;;;;;0.60;0.60;;;;;;;7.88;100.00;95031.56;5092530;28;20206;-76
2023/10/30 04:18:36;;;;;;;0.28;0.28;;;;;;;7.73;100.00;95046.16;5092349;28;20210;-76
2023/10/30 04:21:04;;;;;;;0.20;0.20;;;;;;;7.70;100.00;95049.44;5092800;28;20212;-77
2023/10/30 04:23:31;;;;;;;0.57;0.57;;;;;;;7.67;100.00;95050.03;5092410;28;20210;-76
2023/10/30 04:25:57;;;;;;;0.43;0.43;;;;;;;7.70;100.00;95052.13;5092365;28;20233;-73
2023/10/30 04:28:24;;;;;;;0.20;0.20;;;;;;;7.84;100.00;95047.56;5092089;28;20245;-73
2023/10/30 04:30:53;;;;;;;0.75;0.40;;;;;;;7.90;100.00;95044.75;5091727;28;20632;-74
2023/10/30 04:33:19;;;;;;;0.20;0.20;;;;;;;7.97;100.00;95039.75;5095645;28;20229;-73
2023/10/30 04:35:47;;;;;;;1.67;0.57;;;;;;;7.84;100.00;95047.56;5095184;28;20202;-73
2023/10/30 04:38:14;;;;;;;0.20;0.20;;;;;;;7.87;100.00;95051.56;5098178;28;20206;-73
2023/10/30 04:40:40;;;;;;;0.52;0.52;;;;;;;7.91;100.00;95035.56;5096690;28;20194;-74
2023/10/30 04:43:08;;;;;;;0.30;0.30;;;;;;;7.92;100.00;95045.28;5092251;28;20234;-74
2023/10/30 04:45:35;;;;;;;0.20;0.20;;;;;;;7.82;100.00;95049.75;5103589;28;20612;-74
2023/10/30 04:48:03;;;;;;;1.60;0.55;;;;;;;7.83;100.00;95051.34;5103231;28;20212;-74
2023/10/30 04:50:30;;;;;;;0.30;0.30;;;;;;;7.85;100.00;95049.16;5100640;28;20234;-74
2023/10/30 04:52:57;;;;;;;0.40;0.40;;;;;;;8.02;100.00;95053.16;5108836;28;20313;-74
2023/10/30 04:55:23;;;;;;;0.20;0.20;;;;;;;8.02;100.00;95053.16;5100597;28;20605;-73
2023/10/30 04:57:50;;;;;;;0.65;0.65;;;;;;;7.93;100.00;95054.94;5099161;28;20207;-74
2023/10/30 05:00:18;;;;;;;0.40;0.40;;;;;;;7.95;100.00;95063.53;5098416;28;20212;-76
2023/10/30 05:02:46;;;;;;;0.20;0.20;;;;;;;8.03;100.00;95060.16;5107147;28;20560;-76
2023/10/30 05:05:15;;;;;;;0.20;0.20;;;;;;;8.10;100.00;95057.84;5097794;28;20202;-75
2023/10/30 05:07:44;;;;;;;0.43;0.43;;;;;;;8.17;100.00;95060.94;5096199;28;20205;-75
2023/10/30 05:10:11;;;;;;;0.47;0.47;;;;;;;8.13;100.00;95060.72;5108903;28;20225;-75
2023/10/30 05:12:37;;;;;;;0.40;0.40;;;;;;;8.18;100.00;95057.94;5103947;28;20202;-75
2023/10/30 05:15:05;;;;;;;1.65;1.27;;;;;;;8.23;100.00;95059.72;5095905;28;20206;-78
2023/10/30 05:17:32;;;;;;;0.20;0.20;;;;;;;8.29;100.00;95069.31;5092612;28;20205;-75
2023/10/30 05:19:59;;;;;;;1.50;0.73;;;;;;;8.38;100.00;95062.13;5106880;28;20577;-75
2023/10/30 05:22:28;;;;;;;0.30;0.30;;;;;;;8.46;100.00;95064.13;5101294;28;20205;-75
2023/10/30 05:24:54;;;;;;;0.30;0.30;;;;;;;8.94;100.00;95077.09;5093704;28;20252;-74
2023/10/30 05:27:23;;;;;;;0.28;0.28;;;;;;;9.62;100.00;95074.03;5101321;28;20230;-75
2023/10/30 05:29:49;;;;;;;0.20;0.20;;;;;;;9.76;100.00;95068.53;5094467;28;20230;-74
2023/10/30 05:32:16;;;;;;;0.32;0.32;;;;;;;9.76;100.00;95067.75;5105357;28;20540;-74
2023/10/30 05:34:43;;;;;;;0.75;0.65;;;;;;;10.22;99.60;95080.84;5094181;28;20209;-75
2023/10/30 05:37:11;;;;;;;0.20;0.20;;;;;;;10.59;97.79;95072.19;5097616;28;20204;-73
2023/10/30 05:39:40;;;;;;;0.13;0.13;;;;;;;11.20;96.44;95083.06;5094586;28;20597;-74
2023/10/30 05:42:07;;;;;;;0.60;0.60;;;;;;;12.42;92.20;95079.72;5091071;28;20251;-78
2023/10/30 05:44:34;;;;;;;0.47;0.47;;;;;;;13.65;84.09;95071.13;5091175;28;20295;-75
2023/10/30 05:47:01;;;;;;;0.40;0.40;;;;;;;14.48;77.91;95059.91;5090326;28;20694;-75
2023/10/30 05:49:28;;;;;;;0.43;0.43;;;;;;;15.53;74.94;95066.13;5089892;28;20254;-75
2023/10/30 05:51:57;;;;;;;0.47;0.47;;;;;;;16.08;72.27;95067.25;5090588;28;20558;-74
2023/10/30 05:54:24;;;;;;;0.20;0.20;;;;;;;16.43;66.65;95064.59;5090358;28;20254;-75
2023/10/30 05:56:52;;;;;;;1.75;0.68;;;;;;;16.99;64.65;95065.16;5091001;28;20213;-74
2023/10/30 05:59:19;;;;;;;0.47;0.47;;;;;;;16.81;63.73;95067.47;5090895;28;20445;-75
2023/10/30 06:01:47;;;;;;;0.32;0.32;;;;;;;16.79;64.49;95072.53;5090038;28;20206;-75
2023/10/30 06:04:15;;;;;;;0.40;0.40;;;;;;;17.31;62.29;95065.84;5072094;28;20654;-76
2023/10/30 06:06:41;;;;;;;1.00;0.60;;;;;;;17.36;61.85;95065.56;5090402;28;20202;-76
2023/10/30 06:09:08;;;;;;;0.52;0.52;;;;;;;17.28;62.31;95069.31;5090568;28;20206;-76
2023/10/30 06:11:35;;;;;;;0.73;0.73;;;;;;;17.36;61.31;95065.56;5110740;28;20570;-74
2023/10/30 06:14:04;;;;;;;0.40;0.40;;;;;;;17.88;59.21;95077.97;5101843;28;20202;-75
2023/10/30 06:16:30;;;;;;;4.03;1.63;;;;;;;18.25;58.66;95070.81;5090975;28;20598;-75
2023/10/30 06:18:57;;;;;;;1.25;1.17;;;;;;;18.52;56.60;95074.41;5091322;28;20229;-75
2023/10/30 06:21:24;;;;;;;0.30;0.30;;;;;;;18.25;57.46;95075.50;5090380;28;20256;-76
2023/10/30 06:23:51;;;;;;;3.55;1.27;;;;;;;17.82;59.36;95082.16;5090476;28;20217;-75
2023/10/30 06:26:17;;;;;;;0.30;0.30;;;;;;;17.18;61.19;95089.03;5090032;28;20218;-77
2023/10/30 06:28:44;;;;;;;1.00;0.85;;;;;;;17.12;61.11;95094.00;5090056;28;20202;-74
2023/10/30 06:31:16;;;;;;;0.20;0.20;;;;;;;16.70;62.56;95086.38;5090045;28;20224;-79
2023/10/30 06:33:43;;;;;;;0.80;0.52;;;;;;;16.47;62.42;95093.63;5090331;28;20221;-80
2023/10/30 06:36:10;;;;;;;1.50;1.10;;;;;;;16.34;62.70;95089.38;5090827;28;20195;-80
2023/10/30 06:38:37;;;;;;;1.88;1.15;;;;;;;16.09;64.10;95090.69;5078518;28;20716;-80
2023/10/30 06:41:05;;;;;;;0.32;0.32;;;;;;;15.97;65.65;95094.31;5090656;28;20619;-80
2023/10/30 06:43:33;;;;;;;0.65;0.63;;;;;;;15.27;67.34;95096.59;5101295;28;20202;-79
2023/10/30 06:46:00;;;;;;;0.70;0.57;;;;;;;14.96;67.85;95096.44;5098289;28;20202;-80
2023/10/30 06:48:29;;;;;;;0.20;0.20;;;;;;;14.39;70.40;95094.63;5100560;28;20207;-79
2023/10/30 06:50:57;;;;;;;1.10;0.55;;;;;;;14.55;70.26;95096.38;5102339;28;20226;-81
2023/10/30 06:53:24;;;;;;;2.15;1.02;;;;;;;14.61;70.59;95102.41;5095932;28;20210;-77
2023/10/30 06:55:52;;;;;;;2.17;1.38;;;;;;;14.23;70.89;95098.00;5101099;28;20209;-81
2023/10/30 06:58:21;;;;;;;0.30;0.30;;;;;;;13.75;72.19;95095.19;5102035;28;20228;-78
2023/10/30 07:00:48;;;;;;;0.52;0.52;;;;;;;14.02;71.48;95094.59;5098854;28;20205;-79
2023/10/30 07:03:15;;;;;;;2.92;1.63;;;;;;;13.86;72.38;95090.91;5097716;28;20287;-80
2023/10/30 07:05:43;;;;;;;5.00;1.70;;;;;;;13.91;72.51;95090.69;5101095;28;20226;-79
2023/10/30 07:08:10;;;;;;;1.05;0.95;;;;;;;13.69;73.90;95099.25;5096022;28;20198;-79
2023/10/30 07:10:37;;;;;;;0.60;0.60;;;;;;;13.78;73.64;95091.81;5099782;28;20225;-78
2023/10/30 07:13:04;;;;;;;2.53;1.52;;;;;;;14.09;72.96;95085.84;5093304;28;20207;-78
2023/10/30 07:15:31;;;;;;;1.10;0.45;;;;;;;13.79;72.78;95088.75;5096573;28;20209;-77
2023/10/30 07:17:58;;;;;;;1.75;1.10;;;;;;;14.05;72.46;95085.75;5099309;28;20269;-77
2023/10/30 07:20:25;;;;;;;0.82;0.82;;;;;;;14.22;71.52;95085.50;5101860;28;20270;-77
2023/10/30 07:22:53;;;;;;;1.88;1.20;;;;;;;14.40;69.84;95090.78;5101643;28;20205;-78
2023/10/30 07:25:20;;;;;;;1.05;0.70;;;;;;;14.41;70.69;95087.72;5105424;28;20225;-78
2023/10/30 07:27:47;;;;;;;0.60;0.60;;;;;;;14.22;70.25;95096.41;5105372;28;20213;-77
2023/10/30 07:30:14;;;;;;;2.10;1.50;;;;;;;14.39;70.04;95089.97;5097806;28;20701;-77
2023/10/30 07:32:42;;;;;;;1.10;1.00;;;;;;;14.47;70.54;95096.50;5104808;28;20321;-80
2023/10/30 07:35:09;;;;;;;0.50;0.43;;;;;;;14.33;70.75;95096.00;5102559;28;20221;-78
2023/10/30 07:37:36;;;;;;;0.70;0.70;;;;;;;14.37;70.87;95091.44;5099492;28;20213;-79
2023/10/30 07:40:05;;;;;;;2.13;1.30;;;;;;;14.41;70.54;95082.28;5104408;28;20197;-77
2023/10/30 07:42:32;;;;;;;3.95;1.17;;;;;;;14.58;70.25;95086.72;5103575;28;20202;-78
2023/10/30 07:44:59;;;;;;;1.50;1.17;;;;;;;14.64;70.33;95085.31;5102087;28;20722;-78
2023/10/30 07:47:26;;;;;;;0.70;0.70;;;;;;;14.78;70.05;95091.22;5101581;28;20208;-76
2023/10/30 07:49:54;;;;;;;0.45;0.45;;;;;;;14.81;69.66;95093.28;5096943;28;20210;-78
2023/10/30 07:52:21;;;;;;;1.40;1.15;;;;;;;14.92;70.11;95079.97;5098807;28;20206;-79
2023/10/30 07:54:48;;;;;;;0.20;0.20;;;;;;;14.62;71.39;95087.63;5101669;28;20222;-78
2023/10/30 07:57:17;;;;;;;1.58;1.23;;;;;;;14.55;72.12;95081.94;5103230;28;20210;-79
2023/10/30 07:59:43;;;;;;;1.17;0.77;;;;;;;14.92;71.05;95080.75;5091812;28;20627;-79
2023/10/30 08:02:10;;;;;;;0.73;0.68;;;;;;;15.19;70.75;95084.66;5092449;28;20573;-78
2023/10/30 08:04:37;;;;;;;2.08;0.75;;;;;;;15.24;70.34;95080.91;5091985;28;20599;-79
2023/10/30 08:07:04;;;;;;;0.95;0.95;;;;;;;15.20;70.13;95082.75;5092187;28;20568;-80
2023/10/30 08:09:31;;;;;;;0.40;0.40;;;;;;;15.47;69.33;95073.78;5091731;28;20210;-82
2023/10/30 08:11:57;;;;;;;0.80;0.68;;;;;;;15.74;68.67;95071.41;5092368;28;20640;-78
2023/10/30 08:14:26;;;;;;;0.32;0.32;;;;;;;15.95;67.54;95067.31;5091847;28;20202;-84
2023/10/30 08:16:52;;;;;;;0.30;0.30;;;;;;;16.10;67.05;95073.94;5092128;28;20202;-82
2023/10/30 08:19:19;;;;;;;0.40;0.40;;;;;;;15.98;67.65;95065.84;5091324;28;20214;-75
2023/10/30 08:21:46;;;;;;;0.73;0.73;;;;;;;16.17;66.61;95062.38;5092051;28;20198;-75
2023/10/30 08:24:13;;;;;;;0.20;0.20;;;;;;;15.93;67.07;95061.41;5091466;28;20293;-73
2023/10/30 08:26:40;;;;;;;1.10;0.90;;;;;;;16.15;66.86;95060.00;5091401;28;20218;-73
2023/10/30 08:29:06;;;;;;;2.35;0.50;;;;;;;16.35;66.23;95058.97;5105677;28;20264;-74
2023/10/30 08:31:35;;;;;;;0.47;0.47;;;;;;;16.53;65.99;95064.06;5111261;28;20229;-72
2023/10/30 08:34:02;;;;;;;0.93;0.93;;;;;;;16.57;65.43;95060.25;5097828;28;20233;-72
2023/10/30 08:36:29;;;;;;;0.30;0.30;;;;;;;16.78;65.56;95073.69;5099460;28;20194;-73
2023/10/30 08:38:56;;;;;;;0.22;0.22;;;;;;;16.90;65.32;95070.03;5101122;28;20565;-74
2023/10/30 08:41:23;;;;;;;0.20;0.20;;;;;;;16.73;65.04;95073.94;5095777;28;20198;-74
2023/10/30 08:43:50;;;;;;;0.38;0.38;;;;;;;16.54;66.53;95068.38;5101377;28;20202;-74
2023/10/30 08:46:18;;;;;;;0.30;0.30;;;;;;;16.68;66.12;95066.78;5101486;28;20202;-76
2023/10/30 08:48:46;;;;;;;0.70;0.55;;;;;;;16.80;65.66;95065.94;5099407;28;20225;-77
2023/10/30 08:51:13;;;;;;;0.32;0.32;;;;;;;16.94;65.57;95060.78;5100108;28;20785;-77
2023/10/30 08:53:40;;;;;;;0.38;0.30;;;;;;;17.20;64.77;95059.38;5099511;28;20228;-78
2023/10/30 08:56:07;;;;;;;2.55;1.15;;;;;;;17.29;64.85;95059.94;5101680;28;20248;-78
2023/10/30 08:58:34;;;;;;;0.40;0.40;;;;;;;17.41;64.45;95052.38;5089958;28;20206;-77
2023/10/30 09:01:01;;;;;;;0.28;0.25;;;;;;;17.56;64.71;95038.97;5090603;28;20191;-75
2023/10/30 09:03:27;;;;;;;0.47;0.47;;;;;;;17.49;64.06;95047.84;5089348;28;20218;-75
2023/10/30 09:05:56;;;;;;;1.60;1.05;;;;;;;17.81;63.47;95045.72;5090849;28;20661;-77
2023/10/30 09:08:22;;;;;;;0.70;0.68;;;;;;;18.01;63.64;95038.28;5087999;28;20256;-75
2023/10/30 09:10:49;;;;;;;0.30;0.30;;;;;;;18.20;63.36;95040.94;5098256;28;20225;-77
2023/10/30 09:13:16;;;;;;;0.55;0.55;;;;;;;18.26;63.13;95035.97;5096809;28;20306;-76
2023/10/30 09:15:44;;;;;;;2.15;0.95;;;;;;;18.30;63.05;95023.91;5097885;28;20198;-78
2023/10/30 09:18:10;;;;;;;0.30;0.30;;;;;;;18.08;62.44;95035.66;5102856;28;20236;-78
2023/10/30 09:20:39;;;;;;;0.32;0.32;;;;;;;17.96;62.55;95024.88;5101831;28;20205;-79
2023/10/30 09:23:07;;;;;;;1.08;1.08;;;;;;;18.23;62.16;95022.97;5098645;28;20202;-76
2023/10/30 09:25:34;;;;;;;1.75;0.70;;;;;;;18.15;63.98;95019.34;5097140;28;20234;-76
2023/10/30 09:28:01;;;;;;;1.35;1.00;;;;;;;18.06;63.93;95018.75;5099394;28;20198;-75
2023/10/30 09:30:30;;;;;;;2.75;1.70;;;;;;;18.23;63.43;95026.50;5097708;28;20289;-76
2023/10/30 09:32:58;;;;;;;1.27;1.08;;;;;;;18.34;64.41;95013.75;5101504;28;20654;-76
2023/10/30 09:35:29;;;;;;;1.45;1.30;;;;;;;18.62;63.08;95016.19;5100207;28;20632;-76
2023/10/30 09:37:56;;;;;;;1.55;1.35;;;;;;;18.82;61.75;95011.38;5096249;28;20210;-77
2023/10/30 09:40:26;;;;;;;2.13;1.45;;;;;;;18.94;61.17;95008.44;5096191;28;20218;-76
2023/10/30 09:42:53;;;;;;;4.80;1.85;;;;;;;19.06;60.99;94994.47;5097773;28;20540;-76
2023/10/30 09:45:22;;;;;;;2.58;1.63;;;;;;;18.81;61.31;94998.81;5098311;28;20210;-75
2023/10/30 09:47:51;;;;;;;0.70;0.70;;;;;;;18.80;61.54;94992.53;5096354;28;20229;-75
2023/10/30 09:50:18;;;;;;;4.47;1.70;;;;;;;18.81;60.71;94987.84;5096135;28;20335;-77
2023/10/30 09:52:48;;;;;;;2.55;1.58;;;;;;;18.88;61.21;94987.94;5096408;28;20236;-75
2023/10/30 09:55:20;;;;;;;2.55;1.50;;;;;;;18.95;60.55;94985.28;5098918;28;20213;-78
2023/10/30 09:57:51;;;;;;;2.25;1.50;;;;;;;19.09;61.13;94977.25;5096441;28;20232;-76
2023/10/30 10:00:18;;;;;;;3.28;1.50;;;;;;;19.08;60.62;94972.91;5089207;28;20290;-78
2023/10/30 10:02:46;;;;;;;2.30;1.38;;;;;;;19.31;60.03;94961.00;5093871;28;20632;-77
2023/10/30 10:05:16;;;;;;;3.35;1.38;;;;;;;19.09;60.23;94960.75;5094934;28;20677;-77
2023/10/30 10:07:43;;;;;;;2.40;1.30;;;;;;;18.98;60.96;94959.84;5097179;28;20744;-75
2023/10/30 10:10:12;;;;;;;1.45;1.33;;;;;;;18.90;59.91;94952.66;5100711;28;20252;-77
2023/10/30 10:12:38;;;;;;;3.70;1.30;;;;;;;19.07;58.82;94959.56;5096718;28;20321;-78
2023/10/30 10:15:08;;;;;;;1.23;1.00;;;;;;;19.29;58.09;94960.59;5102678;28;20284;-76
2023/10/30 10:17:44;;;;;;;6.75;1.48;;;;;;;19.64;57.53;94943.75;5098043;28;20215;-78
2023/10/30 10:20:11;;;;;;;1.50;1.13;;;;;;;19.77;56.77;94945.84;5092663;28;20680;-76
2023/10/30 10:22:39;;;;;;;1.25;0.85;;;;;;;19.77;57.17;94940.34;5099044;28;20209;-84
2023/10/30 10:25:10;;;;;;;2.15;1.15;;;;;;;19.78;57.25;94925.44;5095367;28;20198;-77
2023/10/30 10:27:37;;;;;;;2.75;1.38;;;;;;;19.74;57.35;94937.56;5093106;28;20904;-75
2023/10/30 10:30:06;;;;;;;1.45;1.35;;;;;;;19.95;56.61;94929.50;5099840;28;20233;-76
2023/10/30 10:32:34;;;;;;;2.28;1.55;;;;;;;20.02;56.06;94923.28;5095316;28;20816;-76
2023/10/30 10:35:02;;;;;;;1.58;0.98;;;;;;;19.67;55.23;94924.53;5099274;28;20248;-77
2023/10/30 10:37:29;;;;;;;1.55;0.85;;;;;;;19.76;54.28;94915.97;5096255;28;20856;-78
2023/10/30 10:39:56;;;;;;;2.08;1.52;;;;;;;19.98;54.65;94922.44;5094621;28;20201;-74
2023/10/30 10:42:25;;;;;;;2.15;1.00;;;;;;;20.02;54.00;94923.28;5096040;28;20206;-74
2023/10/30 10:44:54;;;;;;;0.82;0.82;;;;;;;20.18;53.57;94918.28;5095004;28;20194;-75
2023/10/30 10:47:22;;;;;;;2.50;1.10;;;;;;;20.30;54.28;94912.47;5102684;28;20205;-75
2023/10/30 10:49:51;;;;;;;1.92;1.00;;;;;;;20.42;53.34;94920.44;5093647;28;20221;-73
2023/10/30 10:52:20;;;;;;;2.20;0.95;;;;;;;20.46;52.68;94913.03;5101946;28;20221;-72
2023/10/30 10:54:52;;;;;;;1.35;1.00;;;;;;;20.30;53.30;94904.22;5098117;28;20206;-71
2023/10/30 10:57:21;;;;;;;0.93;0.73;;;;;;;20.24;53.75;94903.00;5097469;28;20248;-74
2023/10/30 10:59:56;;;;;;;1.20;1.10;;;;;;;20.37;54.01;94904.28;5092946;28;20255;-73
2023/10/30 11:02:30;;;;;;;0.80;0.80;;;;;;;20.36;53.53;94893.69;5098321;28;20229;-72
2023/10/30 11:04:58;;;;;;;0.90;0.80;;;;;;;20.45;53.73;94891.38;5092738;28;20213;-73
2023/10/30 11:07:31;;;;;;;2.53;1.20;;;;;;;20.79;53.10;94884.47;5103190;28;20205;-74
2023/10/30 11:10:03;;;;;;;2.80;1.50;;;;;;;21.10;52.48;94885.78;5093046;28;20650;-73
2023/10/30 11:12:42;;;;;;;3.08;1.55;;;;;;;21.28;52.49;94883.13;5106264;28;20253;-73
2023/10/30 11:15:15;;;;;;;1.08;0.98;;;;;;;21.34;51.10;94869.75;5093051;28;20561;-74
2023/10/30 11:18:08;;;;;;;2.05;0.88;;;;;;;21.16;50.58;94870.47;5095416;27;20214;-74
2023/10/30 11:20:37;;;;;;;1.52;1.23;;;;;;;21.19;50.19;94864.19;5095436;27;20213;-74
2023/10/30 11:23:03;;;;;;;0.70;0.65;;;;;;;21.14;50.79;94866.53;5109609;28;20205;-79
2023/10/30 11:25:50;;;;;;;1.13;0.90;;;;;;;20.96;51.64;94860.94;5098322;28;20233;-75
2023/10/30 11:28:17;;;;;;;1.27;0.90;;;;;;;21.06;51.62;94860.19;5099798;28;20593;-76
2023/10/30 11:30:45;;;;;;;0.93;0.77;;;;;;;20.97;51.55;94843.25;5100009;28;20237;-77
2023/10/30 11:33:22;;;;;;;1.00;0.90;;;;;;;21.07;52.07;94839.72;5102231;28;20222;-74
2023/10/30 11:36:25;;;;;;;1.15;0.73;;;;;;;21.02;52.22;94845.63;5100555;28;20552;-77
2023/10/30 11:39:10;;;;;;;1.63;1.30;;;;;;;21.06;52.34;94831.84;5097047;28;20250;-76
2023/10/30 11:41:38;;;;;;;1.83;0.77;;;;;;;20.92;50.96;94830.63;5091751;28;20205;-72